Flight Track Log - Related Links

Times and Time Zones

All times are in EDT time to prevent confusion due to time zone crossing. See the N700RD flight status page for this flight to view local times or setup timezone preferences in your user account.

Time Position Orientation Groundspeed Altitude Reporting Facility
EDT Latitude Longitude Course Direction KTS MPH feet Rate Location/Type
Thu 06:53:16 PM 41.9550 -87.8022 149° Southeast 71 82 9,000  Level Chicago Center
Thu 06:54:18 PM 41.9419 -87.7917 149° Southeast 58 67 9,000  Level Chicago Center
Thu 06:55:20 PM 41.9275 -87.7847 160° South 55 63 9,000  Level Chicago Center
Thu 06:56:22 PM 41.9103 -87.7769 161° South 55 63 9,000  Level Chicago Center
Thu 06:57:24 PM 41.8972 -87.7708 161° South 52 60 9,000  Level Chicago Center
Thu 06:58:27 PM 41.8861 -87.7650 159° South 49 56 9,000  Level Chicago Center
Thu 06:59:29 PM 41.8717 -87.7578 160° South 50 58 9,000  Level Chicago Center
Thu 07:00:31 PM 41.8597 -87.7506 156° South 92 106 9,000  Level Chicago Center
Thu 07:01:33 PM 41.8442 -87.7419 158° South 61 70 9,000  Level Chicago Center
Thu 07:02:35 PM 41.8331 -87.7353 156° South 58 67 9,000  Level Chicago Center
Thu 07:03:37 PM 41.8197 -87.7300 164° South 50 58 9,000 -511 Level Chicago Center
Thu 07:05:00 PM 41.8731 -87.7542 341° North  Level Estimated
Thu 07:12:00 PM 42.1432 -87.8774 341° North  Level Estimated
Thu 07:13:00 PM 42.1818 -87.8950 341° North  Level Estimated
Thu 07:14:00 PM 42.2203 -87.9127 341° North  Level Estimated
Thu 07:15:00 PM 42.2589 -87.9305 341° North  Level Estimated
Thu 07:16:00 PM 42.2975 -87.9482 341° North  Level Estimated
Thu 07:16:29 PM 42.1500 -87.9000 341° North 125 144 1,900  Level Chicago TRACON
Thu 07:17:00 PM 42.3360 -87.9660 341° North  Level Estimated
Thu 07:17:29 PM 42.1833 -87.8833 20° North 135 155 3,100  Level Chicago TRACON
Thu 07:18:00 PM 42.3746 -87.9837 341° North  Level Estimated
Thu 07:18:29 PM 42.2167 -87.8500 37° Northeast 146 168 4,100  Level Chicago TRACON
Thu 07:19:00 PM 42.4132 -88.0016 341° North  Level Estimated
Thu 07:19:29 PM 42.2500 -87.8167 37° Northeast 190 219 4,100  Level Chicago TRACON
Thu 07:20:00 PM 42.4517 -88.0194 341° North  Level Estimated
Thu 07:20:29 PM 42.3000 -87.8000 14° North 198 228 4,100  Level Chicago TRACON
Thu 07:21:00 PM 42.4903 -88.0372 341° North  Level Estimated
Thu 07:21:30 PM 42.3500 -87.8167 346° North 169 194 5,200  Level Chicago TRACON
Thu 07:22:30 PM 42.4000 -87.8167 360° North 159 183 6,000 800 Climbing Chicago TRACON
Thu 07:23:30 PM 42.4500 -87.8167 360° North 177 204 6,800 940 Climbing Chicago TRACON
Thu 07:24:44 PM 42.4908 -87.8411 336° Northwest 163 188 8,100 1,015 Climbing Chicago Center
Thu 07:25:46 PM 42.5344 -87.8783 328° Northwest 158 182 9,100 919 Climbing Chicago Center
Thu 07:26:48 PM 42.5817 -87.8831 356° North 165 190 10,000 532 Climbing Chicago Center
Thu 07:27:50 PM 42.6297 -87.8928 352° North 170 196 10,200 48 Climbing Chicago Center
Thu 07:28:52 PM 42.6836 -87.8736 15° North 199 229 10,100  Descending Chicago Center
Thu 07:29:54 PM 42.7381 -87.8611 10° North 200 230 10,200  Climbing Chicago Center
Thu 07:30:56 PM 42.7978 -87.8925 339° North 212 244 10,100  Descending Chicago Center
Thu 07:31:58 PM 42.8497 -87.9164 341° North 200 230 10,200  Climbing Chicago Center
Thu 07:33:00 PM 42.9019 -87.9469 337° Northwest 204 235 10,100 -48 Descending Chicago Center
Thu 07:34:03 PM 42.9539 -87.9750 338° Northwest 202 232 10,100 48 Level Chicago Center
Thu 07:35:05 PM 43.0058 -88.0044 337° Northwest 202 232 10,200  Climbing Chicago Center
Thu 07:36:07 PM 43.0675 -88.0383 338° Northwest 205 236 10,100 -48 Descending Chicago Center
Thu 07:37:09 PM 43.1203 -88.0683 337° Northwest 204 235 10,100  Level Chicago Center
Thu 07:38:11 PM 43.1728 -88.0975 338° Northwest 204 235 10,100  Level Chicago Center
Thu 07:39:13 PM 43.2247 -88.1269 338° Northwest 203 234 10,100  Level Chicago Center
Thu 07:40:15 PM 43.2786 -88.1589 337° Northwest 208 239 10,100  Level Chicago Center
Thu 07:41:17 PM 43.3419 -88.1925 339° North 210 242 10,100 48 Level Chicago Center
Thu 07:42:19 PM 43.3958 -88.2228 338° Northwest 210 242 10,200  Climbing Chicago Center
Thu 07:43:21 PM 43.4497 -88.2544 337° Northwest 211 243 10,100 -48 Descending Chicago Center
Thu 07:44:23 PM 43.5044 -88.2850 338° Northwest 212 244 10,100 48 Level Chicago Center
Thu 07:45:26 PM 43.5678 -88.3225 337° Northwest 214 246 10,200  Climbing Chicago Center
Thu 07:46:28 PM 43.6228 -88.3550 337° Northwest 216 249 10,100  Descending Chicago Center
Thu 07:47:30 PM 43.6778 -88.3850 338° Northwest 214 246 10,200  Climbing Chicago Center
Thu 07:48:32 PM 43.7314 -88.4178 336° Northwest 212 244 10,100 -48 Descending Chicago Center
Thu 07:49:34 PM 43.7858 -88.4489 338° Northwest 212 244 10,100  Level Chicago Center
Thu 07:50:36 PM 43.8497 -88.4856 338° Northwest 213 245 10,100 48 Level Chicago Center
Thu 07:51:38 PM 43.9047 -88.5189 336° Northwest 214 246 10,200  Climbing Chicago Center
Thu 07:52:40 PM 43.9589 -88.5500 338° Northwest 213 245 10,100  Descending Chicago Center
Thu 07:53:42 PM 44.0136 -88.5825 337° Northwest 212 244 10,200 48 Climbing Chicago Center
Thu 07:54:44 PM 44.0683 -88.6142 337° Northwest 213 245 10,200 -48 Level Chicago Center
Thu 07:55:46 PM 44.1317 -88.6494 338° Northwest 211 243 10,100 -48 Descending Chicago Center
Thu 07:56:48 PM 44.1853 -88.6819 337° Northwest 210 242 10,100  Level Chicago Center
Thu 07:57:51 PM 44.2392 -88.7167 335° Northwest 212 244 10,100  Level Chicago Center
Thu 07:59:02 PM 44.3036 -88.7528 338° Northwest 214 246 10,100 45 Level Minneapolis Center
Thu 08:00:04 PM 44.3583 -88.7842 338° Northwest 214 246 10,200  Climbing Minneapolis Center
Thu 08:01:10 PM 44.4225 -88.8211 338° Northwest 214 246 10,100 -47 Descending Minneapolis Center
Thu 08:02:12 PM 44.4781 -88.8539 337° Northwest 216 249 10,100  Level Minneapolis Center
Thu 08:03:14 PM 44.5331 -88.8856 338° Northwest 214 246 10,100 48 Level Minneapolis Center
Thu 08:04:16 PM 44.5878 -88.9183 337° Northwest 214 246 10,200  Climbing Minneapolis Center
Thu 08:05:18 PM 44.6517 -88.9564 337° Northwest 213 245 10,100 -48 Descending Minneapolis Center
Thu 08:06:21 PM 44.7069 -88.9881 338° Northwest 214 246 10,100 -48 Level Minneapolis Center
Thu 08:07:23 PM 44.7606 -89.0219 336° Northwest 212 244 10,000 -48 Descending Minneapolis Center
Thu 08:08:25 PM 44.8142 -89.0533 337° Northwest 209 241 10,000 48 Level Minneapolis Center
Thu 08:09:27 PM 44.8686 -89.0853 337° Northwest 212 244 10,100 48 Climbing Minneapolis Center
Thu 08:10:29 PM 44.9311 -89.1242 336° Northwest 210 242 10,100 -48 Level Minneapolis Center
Thu 08:11:31 PM 44.9869 -89.1547 339° North 214 246 10,000 -48 Descending Minneapolis Center
Thu 08:12:33 PM 45.0414 -89.1878 337° Northwest 214 246 10,000  Level Minneapolis Center
Thu 08:13:35 PM 45.0944 -89.2194 337° Northwest 215 247 10,000  Level Minneapolis Center
Thu 08:14:37 PM 45.1481 -89.2536 336° Northwest 213 245 10,000  Level Minneapolis Center
Thu 08:15:40 PM 45.2144 -89.2925 338° Northwest 213 245 10,000 48 Level Minneapolis Center
Thu 08:16:42 PM 45.2681 -89.3261 336° Northwest 211 243 10,100 -194 Climbing Minneapolis Center
Thu 08:17:44 PM 45.3231 -89.3589 337° Northwest 215 247 9,600 -581 Descending Minneapolis Center
Thu 08:18:46 PM 45.3836 -89.3950 337° Northwest 228 262 8,900 -629 Descending Minneapolis Center
Thu 08:19:48 PM 45.4431 -89.4314 337° Northwest 231 266 8,300 -677 Descending Minneapolis Center
Thu 08:20:50 PM 45.5042 -89.4683 337° Northwest 234 269 7,500 -968 Descending Minneapolis Center
Thu 08:21:52 PM 45.5769 -89.5136 336° Northwest 236 272 6,300 -968 Descending Minneapolis Center
Thu 08:22:54 PM 45.6394 -89.5519 337° Northwest 240 276 5,500 -871 Descending Minneapolis Center
Thu 08:23:56 PM 45.6997 -89.5917 335° Northwest 240 276 4,500 -912 Descending Minneapolis Center
Thu 08:24:59 PM 45.7622 -89.6292 337° Northwest 241 277 3,600 -720 Descending Minneapolis Center
Thu 08:26:01 PM 45.8211 -89.6706 334° Northwest 238 274 3,000 -581 Descending Minneapolis Center
Thu 08:28:00 PM 45.9167 -89.7167 North  Level FlightAware Approximate

Login

Don't have an account? Register now (free) for customized features, flight alerts, and more!